sensor_id;sensor_type;location;lat;lon;timestamp;P1;durP1;ratioP1;P2;durP2;ratioP2
20743;SDS011;56303;52.160;-0.428;2024-03-02T00:00:20;13.53;;;6.80;;
20743;SDS011;56303;52.160;-0.428;2024-03-02T00:02:48;11.73;;;6.33;;
20743;SDS011;56303;52.160;-0.428;2024-03-02T00:05:19;10.93;;;5.90;;
20743;SDS011;56303;52.160;-0.428;2024-03-02T00:07:53;12.17;;;7.07;;
20743;SDS011;56303;52.160;-0.428;2024-03-02T00:10:28;14.67;;;7.67;;
20743;SDS011;56303;52.160;-0.428;2024-03-02T00:13:08;10.57;;;6.87;;
20743;SDS011;56303;52.160;-0.428;2024-03-02T00:15:40;12.03;;;7.57;;
20743;SDS011;56303;52.160;-0.428;2024-03-02T00:18:14;12.77;;;7.57;;
20743;SDS011;56303;52.160;-0.428;2024-03-02T00:20:45;10.43;;;7.90;;
20743;SDS011;56303;52.160;-0.428;2024-03-02T00:23:14;15.57;;;8.80;;
20743;SDS011;56303;52.160;-0.428;2024-03-02T00:28:19;12.93;;;9.27;;
20743;SDS011;56303;52.160;-0.428;2024-03-02T00:31:04;15.70;;;8.83;;
20743;SDS011;56303;52.160;-0.428;2024-03-02T00:33:37;15.93;;;9.67;;
20743;SDS011;56303;52.160;-0.428;2024-03-02T00:36:15;17.87;;;10.93;;
20743;SDS011;56303;52.160;-0.428;2024-03-02T00:38:48;15.80;;;10.33;;
20743;SDS011;56303;52.160;-0.428;2024-03-02T00:46:33;22.10;;;11.97;;
20743;SDS011;56303;52.160;-0.428;2024-03-02T00:49:05;16.10;;;10.13;;
20743;SDS011;56303;52.160;-0.428;2024-03-02T00:51:38;19.03;;;10.43;;
20743;SDS011;56303;52.160;-0.428;2024-03-02T00:54:07;21.10;;;11.40;;
20743;SDS011;56303;52.160;-0.428;2024-03-02T00:56:35;17.50;;;10.33;;
20743;SDS011;56303;52.160;-0.428;2024-03-02T00:59:02;19.13;;;11.33;;
20743;SDS011;56303;52.160;-0.428;2024-03-02T01:01:29;18.20;;;11.70;;
20743;SDS011;56303;52.160;-0.428;2024-03-02T01:03:56;15.10;;;11.47;;
20743;SDS011;56303;52.160;-0.428;2024-03-02T01:06:23;19.97;;;11.27;;
20743;SDS011;56303;52.160;-0.428;2024-03-02T01:08:50;15.13;;;9.77;;
20743;SDS011;56303;52.160;-0.428;2024-03-02T01:11:19;19.60;;;11.03;;
20743;SDS011;56303;52.160;-0.428;2024-03-02T01:13:49;16.57;;;11.27;;
20743;SDS011;56303;52.160;-0.428;2024-03-02T01:16:17;20.57;;;11.60;;
20743;SDS011;56303;52.160;-0.428;2024-03-02T01:18:44;20.27;;;11.40;;
20743;SDS011;56303;52.160;-0.428;2024-03-02T01:21:11;19.03;;;11.47;;
20743;SDS011;56303;52.160;-0.428;2024-03-02T01:23:38;19.73;;;13.00;;
20743;SDS011;56303;52.160;-0.428;2024-03-02T01:26:05;20.07;;;12.20;;
20743;SDS011;56303;52.160;-0.428;2024-03-02T01:28:33;19.23;;;11.83;;
20743;SDS011;56303;52.160;-0.428;2024-03-02T01:31:00;18.63;;;12.13;;
20743;SDS011;56303;52.160;-0.428;2024-03-02T01:33:28;16.90;;;12.17;;
20743;SDS011;56303;52.160;-0.428;2024-03-02T01:35:55;18.03;;;11.70;;
20743;SDS011;56303;52.160;-0.428;2024-03-02T01:38:22;18.03;;;11.33;;
20743;SDS011;56303;52.160;-0.428;2024-03-02T01:40:49;16.70;;;11.30;;
20743;SDS011;56303;52.160;-0.428;2024-03-02T01:43:18;12.70;;;8.97;;
20743;SDS011;56303;52.160;-0.428;2024-03-02T01:45:44;16.10;;;10.30;;
20743;SDS011;56303;52.160;-0.428;2024-03-02T01:48:12;12.83;;;9.50;;
20743;SDS011;56303;52.160;-0.428;2024-03-02T01:50:39;11.93;;;8.60;;
20743;SDS011;56303;52.160;-0.428;2024-03-02T01:53:06;14.23;;;9.17;;
20743;SDS011;56303;52.160;-0.428;2024-03-02T01:55:35;15.43;;;8.83;;
20743;SDS011;56303;52.160;-0.428;2024-03-02T01:58:01;15.53;;;8.87;;
20743;SDS011;56303;52.160;-0.428;2024-03-02T02:00:29;13.30;;;9.67;;
20743;SDS011;56303;52.160;-0.428;2024-03-02T02:02:56;15.43;;;9.70;;
20743;SDS011;56303;52.160;-0.428;2024-03-02T02:05:24;13.93;;;8.33;;
20743;SDS011;56303;52.160;-0.428;2024-03-02T02:07:51;16.27;;;9.30;;
20743;SDS011;56303;52.160;-0.428;2024-03-02T02:10:18;11.00;;;7.17;;
20743;SDS011;56303;52.160;-0.428;2024-03-02T02:12:45;11.07;;;7.00;;
20743;SDS011;56303;52.160;-0.428;2024-03-02T02:18:08;11.30;;;7.07;;
20743;SDS011;56303;52.160;-0.428;2024-03-02T02:20:35;15.33;;;7.93;;
20743;SDS011;56303;52.160;-0.428;2024-03-02T02:23:02;10.40;;;6.23;;
20743;SDS011;56303;52.160;-0.428;2024-03-02T02:25:31;11.67;;;6.63;;
20743;SDS011;56303;52.160;-0.428;2024-03-02T02:27:58;10.90;;;6.10;;
20743;SDS011;56303;52.160;-0.428;2024-03-02T02:32:53;14.03;;;6.27;;
20743;SDS011;56303;52.160;-0.428;2024-03-02T02:35:21;11.43;;;5.73;;
20743;SDS011;56303;52.160;-0.428;2024-03-02T02:37:48;13.63;;;6.13;;
20743;SDS011;56303;52.160;-0.428;2024-03-02T02:40:16;9.53;;;4.97;;
20743;SDS011;56303;52.160;-0.428;2024-03-02T02:42:45;6.93;;;4.20;;
20743;SDS011;56303;52.160;-0.428;2024-03-02T02:45:12;7.43;;;3.47;;
20743;SDS011;56303;52.160;-0.428;2024-03-02T02:47:41;9.23;;;3.30;;
20743;SDS011;56303;52.160;-0.428;2024-03-02T02:50:09;6.70;;;3.07;;
20743;SDS011;56303;52.160;-0.428;2024-03-02T02:52:38;5.50;;;2.43;;
20743;SDS011;56303;52.160;-0.428;2024-03-02T02:55:07;8.33;;;2.80;;
20743;SDS011;56303;52.160;-0.428;2024-03-02T02:57:41;6.73;;;3.00;;
20743;SDS011;56303;52.160;-0.428;2024-03-02T03:00:11;5.70;;;2.57;;
20743;SDS011;56303;52.160;-0.428;2024-03-02T03:02:47;6.93;;;2.57;;
20743;SDS011;56303;52.160;-0.428;2024-03-02T03:05:17;7.03;;;2.70;;
20743;SDS011;56303;52.160;-0.428;2024-03-02T03:07:44;7.73;;;2.70;;
20743;SDS011;56303;52.160;-0.428;2024-03-02T03:10:11;8.20;;;2.17;;
20743;SDS011;56303;52.160;-0.428;2024-03-02T03:12:40;4.90;;;2.80;;
20743;SDS011;56303;52.160;-0.428;2024-03-02T03:15:09;6.63;;;2.70;;
20743;SDS011;56303;52.160;-0.428;2024-03-02T03:17:37;7.93;;;3.00;;
20743;SDS011;56303;52.160;-0.428;2024-03-02T03:20:04;8.20;;;2.57;;
20743;SDS011;56303;52.160;-0.428;2024-03-02T03:22:32;4.53;;;2.40;;
20743;SDS011;56303;52.160;-0.428;2024-03-02T03:24:59;9.87;;;2.70;;
20743;SDS011;56303;52.160;-0.428;2024-03-02T03:27:26;5.40;;;2.73;;
20743;SDS011;56303;52.160;-0.428;2024-03-02T03:29:54;10.33;;;2.70;;
20743;SDS011;56303;52.160;-0.428;2024-03-02T03:32:21;5.00;;;2.20;;
20743;SDS011;56303;52.160;-0.428;2024-03-02T03:34:48;7.67;;;2.23;;
20743;SDS011;56303;52.160;-0.428;2024-03-02T03:37:15;4.07;;;1.80;;
20743;SDS011;56303;52.160;-0.428;2024-03-02T03:39:42;4.03;;;1.60;;
20743;SDS011;56303;52.160;-0.428;2024-03-02T03:42:09;1.43;;;1.20;;
20743;SDS011;56303;52.160;-0.428;2024-03-02T03:44:36;3.27;;;1.40;;
20743;SDS011;56303;52.160;-0.428;2024-03-02T03:47:03;3.47;;;1.20;;
20743;SDS011;56303;52.160;-0.428;2024-03-02T03:49:30;3.63;;;0.90;;
20743;SDS011;56303;52.160;-0.428;2024-03-02T03:51:57;3.83;;;0.80;;
20743;SDS011;56303;52.160;-0.428;2024-03-02T03:54:24;1.57;;;0.90;;
20743;SDS011;56303;52.160;-0.428;2024-03-02T03:56:50;3.20;;;0.80;;
20743;SDS011;56303;52.160;-0.428;2024-03-02T03:59:17;3.53;;;1.03;;
20743;SDS011;56303;52.160;-0.428;2024-03-02T04:01:44;1.77;;;0.57;;
20743;SDS011;56303;52.160;-0.428;2024-03-02T04:04:11;1.07;;;0.77;;
20743;SDS011;56303;52.160;-0.428;2024-03-02T04:06:38;1.60;;;0.77;;
20743;SDS011;56303;52.160;-0.428;2024-03-02T04:09:05;1.67;;;0.80;;
20743;SDS011;56303;52.160;-0.428;2024-03-02T04:11:32;2.53;;;0.93;;
20743;SDS011;56303;52.160;-0.428;2024-03-02T04:13:59;2.23;;;0.90;;
20743;SDS011;56303;52.160;-0.428;2024-03-02T04:16:26;1.37;;;0.90;;
20743;SDS011;56303;52.160;-0.428;2024-03-02T04:18:53;1.40;;;0.93;;
20743;SDS011;56303;52.160;-0.428;2024-03-02T04:21:20;1.43;;;1.10;;
20743;SDS011;56303;52.160;-0.428;2024-03-02T04:23:47;1.90;;;1.30;;
20743;SDS011;56303;52.160;-0.428;2024-03-02T04:26:14;2.17;;;1.23;;
20743;SDS011;56303;52.160;-0.428;2024-03-02T04:28:46;2.47;;;1.47;;
20743;SDS011;56303;52.160;-0.428;2024-03-02T04:31:14;7.67;;;2.23;;
20743;SDS011;56303;52.160;-0.428;2024-03-02T04:33:41;5.60;;;2.13;;
20743;SDS011;56303;52.160;-0.428;2024-03-02T04:36:08;4.77;;;2.40;;
20743;SDS011;56303;52.160;-0.428;2024-03-02T04:38:36;5.53;;;2.67;;
20743;SDS011;56303;52.160;-0.428;2024-03-02T04:41:04;11.73;;;3.67;;
20743;SDS011;56303;52.160;-0.428;2024-03-02T04:43:34;6.33;;;3.27;;
20743;SDS011;56303;52.160;-0.428;2024-03-02T04:46:01;5.97;;;3.37;;
20743;SDS011;56303;52.160;-0.428;2024-03-02T04:48:28;6.87;;;3.90;;
20743;SDS011;56303;52.160;-0.428;2024-03-02T04:50:55;9.10;;;3.87;;
20743;SDS011;56303;52.160;-0.428;2024-03-02T04:53:22;6.50;;;3.67;;
20743;SDS011;56303;52.160;-0.428;2024-03-02T04:55:49;9.73;;;3.83;;
20743;SDS011;56303;52.160;-0.428;2024-03-02T04:58:35;9.17;;;3.87;;
20743;SDS011;56303;52.160;-0.428;2024-03-02T05:01:02;8.17;;;3.80;;
20743;SDS011;56303;52.160;-0.428;2024-03-02T05:03:29;10.03;;;4.37;;
20743;SDS011;56303;52.160;-0.428;2024-03-02T05:05:56;9.13;;;4.40;;
20743;SDS011;56303;52.160;-0.428;2024-03-02T05:08:23;11.83;;;5.77;;
20743;SDS011;56303;52.160;-0.428;2024-03-02T05:10:50;11.27;;;6.10;;
20743;SDS011;56303;52.160;-0.428;2024-03-02T05:13:17;13.97;;;6.97;;
20743;SDS011;56303;52.160;-0.428;2024-03-02T05:15:43;12.20;;;5.83;;
20743;SDS011;56303;52.160;-0.428;2024-03-02T05:18:11;12.73;;;6.20;;
20743;SDS011;56303;52.160;-0.428;2024-03-02T05:20:38;10.97;;;5.50;;
20743;SDS011;56303;52.160;-0.428;2024-03-02T05:23:04;13.70;;;6.20;;
20743;SDS011;56303;52.160;-0.428;2024-03-02T05:25:31;13.63;;;6.30;;
20743;SDS011;56303;52.160;-0.428;2024-03-02T05:27:59;11.63;;;5.30;;
20743;SDS011;56303;52.160;-0.428;2024-03-02T05:30:26;12.53;;;5.53;;
20743;SDS011;56303;52.160;-0.428;2024-03-02T05:32:53;13.00;;;4.40;;
20743;SDS011;56303;52.160;-0.428;2024-03-02T05:35:19;10.53;;;5.10;;
20743;SDS011;56303;52.160;-0.428;2024-03-02T05:37:46;9.10;;;4.73;;
20743;SDS011;56303;52.160;-0.428;2024-03-02T05:40:13;10.40;;;3.77;;
20743;SDS011;56303;52.160;-0.428;2024-03-02T05:42:40;9.37;;;4.23;;
20743;SDS011;56303;52.160;-0.428;2024-03-02T05:45:09;10.20;;;4.30;;
20743;SDS011;56303;52.160;-0.428;2024-03-02T05:47:36;13.53;;;3.90;;
20743;SDS011;56303;52.160;-0.428;2024-03-02T05:50:03;12.37;;;3.67;;
20743;SDS011;56303;52.160;-0.428;2024-03-02T05:52:30;14.10;;;3.83;;
20743;SDS011;56303;52.160;-0.428;2024-03-02T05:54:57;11.30;;;4.40;;
20743;SDS011;56303;52.160;-0.428;2024-03-02T05:57:24;12.37;;;3.37;;
20743;SDS011;56303;52.160;-0.428;2024-03-02T06:00:14;9.63;;;3.20;;
20743;SDS011;56303;52.160;-0.428;2024-03-02T06:02:43;13.87;;;3.70;;
20743;SDS011;56303;52.160;-0.428;2024-03-02T06:05:10;13.30;;;3.47;;
20743;SDS011;56303;52.160;-0.428;2024-03-02T06:07:37;12.07;;;3.83;;
20743;SDS011;56303;52.160;-0.428;2024-03-02T06:10:04;14.50;;;3.60;;
20743;SDS011;56303;52.160;-0.428;2024-03-02T06:12:37;13.57;;;4.23;;
20743;SDS011;56303;52.160;-0.428;2024-03-02T06:15:04;11.33;;;2.93;;
20743;SDS011;56303;52.160;-0.428;2024-03-02T06:17:32;10.43;;;4.07;;
20743;SDS011;56303;52.160;-0.428;2024-03-02T06:19:59;11.87;;;2.73;;
20743;SDS011;56303;52.160;-0.428;2024-03-02T06:22:25;10.93;;;2.90;;
20743;SDS011;56303;52.160;-0.428;2024-03-02T06:24:52;10.33;;;3.93;;
20743;SDS011;56303;52.160;-0.428;2024-03-02T06:27:19;9.93;;;3.13;;
20743;SDS011;56303;52.160;-0.428;2024-03-02T06:29:46;12.63;;;4.60;;
20743;SDS011;56303;52.160;-0.428;2024-03-02T06:32:14;8.13;;;3.07;;
20743;SDS011;56303;52.160;-0.428;2024-03-02T06:34:41;12.03;;;4.03;;
20743;SDS011;56303;52.160;-0.428;2024-03-02T06:37:08;10.40;;;4.00;;
20743;SDS011;56303;52.160;-0.428;2024-03-02T06:39:35;9.13;;;3.10;;
20743;SDS011;56303;52.160;-0.428;2024-03-02T06:42:02;13.20;;;4.17;;
20743;SDS011;56303;52.160;-0.428;2024-03-02T06:44:30;11.73;;;4.13;;
20743;SDS011;56303;52.160;-0.428;2024-03-02T06:46:57;15.17;;;6.10;;
20743;SDS011;56303;52.160;-0.428;2024-03-02T06:49:24;10.03;;;2.90;;
20743;SDS011;56303;52.160;-0.428;2024-03-02T06:51:51;13.03;;;4.87;;
20743;SDS011;56303;52.160;-0.428;2024-03-02T06:54:18;13.73;;;5.00;;
20743;SDS011;56303;52.160;-0.428;2024-03-02T06:56:45;17.57;;;6.30;;
20743;SDS011;56303;52.160;-0.428;2024-03-02T06:59:12;15.43;;;5.13;;
20743;SDS011;56303;52.160;-0.428;2024-03-02T07:01:39;10.60;;;4.57;;
20743;SDS011;56303;52.160;-0.428;2024-03-02T07:04:07;10.17;;;3.77;;
20743;SDS011;56303;52.160;-0.428;2024-03-02T07:06:34;13.37;;;3.30;;
20743;SDS011;56303;52.160;-0.428;2024-03-02T07:09:01;10.10;;;3.20;;
20743;SDS011;56303;52.160;-0.428;2024-03-02T07:11:27;12.63;;;5.17;;
20743;SDS011;56303;52.160;-0.428;2024-03-02T07:13:54;9.57;;;3.43;;
20743;SDS011;56303;52.160;-0.428;2024-03-02T07:16:21;11.77;;;3.07;;
20743;SDS011;56303;52.160;-0.428;2024-03-02T07:18:54;9.13;;;2.57;;
20743;SDS011;56303;52.160;-0.428;2024-03-02T07:21:23;13.90;;;3.37;;
20743;SDS011;56303;52.160;-0.428;2024-03-02T07:23:50;6.57;;;2.70;;
20743;SDS011;56303;52.160;-0.428;2024-03-02T07:26:17;6.90;;;2.77;;
20743;SDS011;56303;52.160;-0.428;2024-03-02T07:28:49;8.50;;;3.67;;
20743;SDS011;56303;52.160;-0.428;2024-03-02T07:31:17;8.63;;;3.40;;
20743;SDS011;56303;52.160;-0.428;2024-03-02T07:33:44;11.23;;;2.90;;
20743;SDS011;56303;52.160;-0.428;2024-03-02T07:36:12;10.23;;;3.60;;
20743;SDS011;56303;52.160;-0.428;2024-03-02T07:38:40;14.23;;;4.13;;
20743;SDS011;56303;52.160;-0.428;2024-03-02T07:41:07;9.40;;;2.53;;
20743;SDS011;56303;52.160;-0.428;2024-03-02T07:43:35;11.30;;;3.33;;
20743;SDS011;56303;52.160;-0.428;2024-03-02T07:46:02;10.37;;;3.10;;
20743;SDS011;56303;52.160;-0.428;2024-03-02T07:48:29;10.30;;;3.03;;
20743;SDS011;56303;52.160;-0.428;2024-03-02T07:50:57;10.10;;;3.67;;
20743;SDS011;56303;52.160;-0.428;2024-03-02T07:53:24;13.50;;;3.70;;
20743;SDS011;56303;52.160;-0.428;2024-03-02T07:55:51;12.53;;;3.67;;
20743;SDS011;56303;52.160;-0.428;2024-03-02T07:58:18;12.53;;;5.20;;
20743;SDS011;56303;52.160;-0.428;2024-03-02T08:00:46;13.77;;;4.03;;
20743;SDS011;56303;52.160;-0.428;2024-03-02T08:03:13;15.30;;;4.20;;
20743;SDS011;56303;52.160;-0.428;2024-03-02T08:05:41;13.33;;;3.57;;
20743;SDS011;56303;52.160;-0.428;2024-03-02T08:08:08;12.63;;;3.63;;
20743;SDS011;56303;52.160;-0.428;2024-03-02T08:10:35;11.70;;;4.60;;
20743;SDS011;56303;52.160;-0.428;2024-03-02T08:13:02;13.40;;;3.63;;
20743;SDS011;56303;52.160;-0.428;2024-03-02T08:15:29;12.47;;;3.30;;
20743;SDS011;56303;52.160;-0.428;2024-03-02T08:17:56;14.73;;;3.40;;
20743;SDS011;56303;52.160;-0.428;2024-03-02T08:20:23;9.60;;;3.00;;
20743;SDS011;56303;52.160;-0.428;2024-03-02T08:22:50;14.13;;;4.13;;
20743;SDS011;56303;52.160;-0.428;2024-03-02T08:25:17;9.77;;;2.80;;
20743;SDS011;56303;52.160;-0.428;2024-03-02T08:27:44;9.17;;;3.47;;
20743;SDS011;56303;52.160;-0.428;2024-03-02T08:30:11;14.83;;;3.23;;
20743;SDS011;56303;52.160;-0.428;2024-03-02T08:32:39;10.97;;;2.87;;
20743;SDS011;56303;52.160;-0.428;2024-03-02T08:35:07;11.13;;;2.40;;
20743;SDS011;56303;52.160;-0.428;2024-03-02T08:37:34;10.03;;;2.83;;
20743;SDS011;56303;52.160;-0.428;2024-03-02T08:40:03;10.80;;;3.00;;
20743;SDS011;56303;52.160;-0.428;2024-03-02T08:42:33;6.50;;;2.50;;
20743;SDS011;56303;52.160;-0.428;2024-03-02T08:45:00;8.63;;;3.03;;
20743;SDS011;56303;52.160;-0.428;2024-03-02T08:47:27;9.53;;;2.73;;
20743;SDS011;56303;52.160;-0.428;2024-03-02T08:49:54;7.73;;;2.50;;
20743;SDS011;56303;52.160;-0.428;2024-03-02T08:52:25;9.00;;;2.60;;
20743;SDS011;56303;52.160;-0.428;2024-03-02T08:54:52;9.47;;;2.60;;
20743;SDS011;56303;52.160;-0.428;2024-03-02T08:57:19;6.47;;;2.57;;
20743;SDS011;56303;52.160;-0.428;2024-03-02T08:59:46;7.33;;;1.67;;
20743;SDS011;56303;52.160;-0.428;2024-03-02T09:02:14;6.97;;;1.67;;
20743;SDS011;56303;52.160;-0.428;2024-03-02T09:04:41;5.97;;;2.37;;
20743;SDS011;56303;52.160;-0.428;2024-03-02T09:07:08;6.83;;;2.10;;
20743;SDS011;56303;52.160;-0.428;2024-03-02T09:09:35;5.00;;;1.50;;
20743;SDS011;56303;52.160;-0.428;2024-03-02T09:12:02;6.40;;;1.80;;
20743;SDS011;56303;52.160;-0.428;2024-03-02T09:14:29;3.10;;;1.50;;
20743;SDS011;56303;52.160;-0.428;2024-03-02T09:16:56;3.83;;;1.37;;
20743;SDS011;56303;52.160;-0.428;2024-03-02T09:19:23;6.67;;;1.27;;
20743;SDS011;56303;52.160;-0.428;2024-03-02T09:21:50;4.23;;;0.90;;
20743;SDS011;56303;52.160;-0.428;2024-03-02T09:24:17;2.33;;;0.70;;
20743;SDS011;56303;52.160;-0.428;2024-03-02T09:26:44;0.97;;;0.40;;
20743;SDS011;56303;52.160;-0.428;2024-03-02T09:29:11;0.60;;;0.30;;
20743;SDS011;56303;52.160;-0.428;2024-03-02T09:31:41;1.40;;;0.30;;
20743;SDS011;56303;52.160;-0.428;2024-03-02T09:34:09;1.67;;;0.60;;
20743;SDS011;56303;52.160;-0.428;2024-03-02T09:36:36;1.57;;;0.60;;
20743;SDS011;56303;52.160;-0.428;2024-03-02T09:39:03;1.47;;;0.40;;
20743;SDS011;56303;52.160;-0.428;2024-03-02T09:41:30;1.57;;;0.80;;
20743;SDS011;56303;52.160;-0.428;2024-03-02T09:43:59;5.23;;;2.73;;
20743;SDS011;56303;52.160;-0.428;2024-03-02T09:46:27;0.63;;;0.43;;
20743;SDS011;56303;52.160;-0.428;2024-03-02T09:48:54;0.57;;;0.57;;
20743;SDS011;56303;52.160;-0.428;2024-03-02T09:51:21;0.43;;;0.40;;
20743;SDS011;56303;52.160;-0.428;2024-03-02T09:53:51;2.63;;;0.53;;
20743;SDS011;56303;52.160;-0.428;2024-03-02T09:56:25;1.73;;;1.03;;
20743;SDS011;56303;52.160;-0.428;2024-03-02T09:58:53;1.17;;;0.60;;
20743;SDS011;56303;52.160;-0.428;2024-03-02T10:01:20;4.57;;;1.90;;
20743;SDS011;56303;52.160;-0.428;2024-03-02T10:03:47;2.70;;;1.30;;
20743;SDS011;56303;52.160;-0.428;2024-03-02T10:06:19;2.13;;;1.30;;
20743;SDS011;56303;52.160;-0.428;2024-03-02T10:08:50;0.90;;;0.47;;
20743;SDS011;56303;52.160;-0.428;2024-03-02T10:11:31;9.60;;;5.00;;
20743;SDS011;56303;52.160;-0.428;2024-03-02T10:14:18;1.63;;;0.30;;
20743;SDS011;56303;52.160;-0.428;2024-03-02T10:16:45;0.40;;;0.20;;
20743;SDS011;56303;52.160;-0.428;2024-03-02T10:21:51;2.60;;;1.40;;
20743;SDS011;56303;52.160;-0.428;2024-03-02T10:24:19;0.87;;;0.40;;
20743;SDS011;56303;52.160;-0.428;2024-03-02T10:26:48;0.00;;;0.00;;
20743;SDS011;56303;52.160;-0.428;2024-03-02T10:29:16;0.20;;;0.20;;
20743;SDS011;56303;52.160;-0.428;2024-03-02T10:31:43;0.00;;;0.00;;
20743;SDS011;56303;52.160;-0.428;2024-03-02T10:34:12;0.67;;;0.20;;
20743;SDS011;56303;52.160;-0.428;2024-03-02T10:36:41;0.50;;;0.13;;
20743;SDS011;56303;52.160;-0.428;2024-03-02T10:39:09;0.53;;;0.37;;
20743;SDS011;56303;52.160;-0.428;2024-03-02T10:41:38;0.20;;;0.10;;
20743;SDS011;56303;52.160;-0.428;2024-03-02T10:44:07;0.40;;;0.30;;
20743;SDS011;56303;52.160;-0.428;2024-03-02T10:46:36;0.47;;;0.30;;
20743;SDS011;56303;52.160;-0.428;2024-03-02T10:49:04;0.20;;;0.20;;
20743;SDS011;56303;52.160;-0.428;2024-03-02T10:51:34;1.50;;;0.40;;
20743;SDS011;56303;52.160;-0.428;2024-03-02T10:54:04;1.70;;;0.60;;
20743;SDS011;56303;52.160;-0.428;2024-03-02T10:56:39;0.63;;;0.40;;
20743;SDS011;56303;52.160;-0.428;2024-03-02T10:59:15;0.60;;;0.30;;
20743;SDS011;56303;52.160;-0.428;2024-03-02T11:01:57;0.10;;;0.10;;
20743;SDS011;56303;52.160;-0.428;2024-03-02T11:04:31;0.30;;;0.30;;
20743;SDS011;56303;52.160;-0.428;2024-03-02T11:07:05;0.70;;;0.30;;
20743;SDS011;56303;52.160;-0.428;2024-03-02T11:09:38;0.27;;;0.27;;
20743;SDS011;56303;52.160;-0.428;2024-03-02T11:14:55;1.60;;;0.20;;
20743;SDS011;56303;52.160;-0.428;2024-03-02T11:17:22;1.23;;;0.33;;
20743;SDS011;56303;52.160;-0.428;2024-03-02T11:19:50;1.13;;;0.23;;
20743;SDS011;56303;52.160;-0.428;2024-03-02T11:22:19;0.40;;;0.30;;
20743;SDS011;56303;52.160;-0.428;2024-03-02T11:24:50;0.37;;;0.20;;
20743;SDS011;56303;52.160;-0.428;2024-03-02T11:33:00;0.47;;;0.20;;
20743;SDS011;56303;52.160;-0.428;2024-03-02T11:35:37;1.20;;;0.60;;
20743;SDS011;56303;52.160;-0.428;2024-03-02T11:38:15;0.17;;;0.17;;
20743;SDS011;56303;52.160;-0.428;2024-03-02T11:40:44;0.10;;;0.10;;
20743;SDS011;56303;52.160;-0.428;2024-03-02T11:43:13;0.10;;;0.10;;
20743;SDS011;56303;52.160;-0.428;2024-03-02T11:45:41;0.83;;;0.33;;
20743;SDS011;56303;52.160;-0.428;2024-03-02T11:48:14;0.40;;;0.23;;
20743;SDS011;56303;52.160;-0.428;2024-03-02T11:53:13;0.30;;;0.30;;
20743;SDS011;56303;52.160;-0.428;2024-03-02T11:55:41;0.77;;;0.37;;
20743;SDS011;56303;52.160;-0.428;2024-03-02T11:58:15;0.73;;;0.40;;
20743;SDS011;56303;52.160;-0.428;2024-03-02T12:00:50;0.40;;;0.40;;
20743;SDS011;56303;52.160;-0.428;2024-03-02T12:03:18;1.47;;;0.50;;
20743;SDS011;56303;52.160;-0.428;2024-03-02T12:05:49;0.60;;;0.30;;
20743;SDS011;56303;52.160;-0.428;2024-03-02T12:08:17;0.83;;;0.47;;
20743;SDS011;56303;52.160;-0.428;2024-03-02T12:13:51;0.67;;;0.50;;
20743;SDS011;56303;52.160;-0.428;2024-03-02T12:16:27;0.37;;;0.30;;
20743;SDS011;56303;52.160;-0.428;2024-03-02T12:18:54;0.90;;;0.37;;
20743;SDS011;56303;52.160;-0.428;2024-03-02T12:21:21;0.70;;;0.70;;
20743;SDS011;56303;52.160;-0.428;2024-03-02T12:23:48;0.50;;;0.33;;
20743;SDS011;56303;52.160;-0.428;2024-03-02T12:26:16;0.23;;;0.23;;
20743;SDS011;56303;52.160;-0.428;2024-03-02T12:28:43;0.70;;;0.40;;
20743;SDS011;56303;52.160;-0.428;2024-03-02T12:31:11;0.67;;;0.40;;
20743;SDS011;56303;52.160;-0.428;2024-03-02T12:33:38;0.77;;;0.60;;
20743;SDS011;56303;52.160;-0.428;2024-03-02T12:36:05;7.10;;;3.60;;
20743;SDS011;56303;52.160;-0.428;2024-03-02T12:38:45;0.70;;;0.40;;
20743;SDS011;56303;52.160;-0.428;2024-03-02T12:41:16;0.50;;;0.50;;
20743;SDS011;56303;52.160;-0.428;2024-03-02T12:43:43;0.63;;;0.40;;
20743;SDS011;56303;52.160;-0.428;2024-03-02T12:46:10;0.20;;;0.20;;
20743;SDS011;56303;52.160;-0.428;2024-03-02T12:48:37;1.17;;;0.57;;
20743;SDS011;56303;52.160;-0.428;2024-03-02T12:51:07;0.73;;;0.30;;
20743;SDS011;56303;52.160;-0.428;2024-03-02T12:53:34;2.90;;;0.60;;
20743;SDS011;56303;52.160;-0.428;2024-03-02T12:56:01;1.80;;;1.03;;
20743;SDS011;56303;52.160;-0.428;2024-03-02T12:58:28;1.47;;;0.70;;
20743;SDS011;56303;52.160;-0.428;2024-03-02T13:01:09;1.33;;;0.50;;
20743;SDS011;56303;52.160;-0.428;2024-03-02T13:03:37;0.77;;;0.77;;
20743;SDS011;56303;52.160;-0.428;2024-03-02T13:06:05;0.70;;;0.57;;
20743;SDS011;56303;52.160;-0.428;2024-03-02T13:08:33;1.57;;;0.70;;
20743;SDS011;56303;52.160;-0.428;2024-03-02T13:11:01;1.90;;;0.90;;
20743;SDS011;56303;52.160;-0.428;2024-03-02T13:13:31;0.87;;;0.67;;
20743;SDS011;56303;52.160;-0.428;2024-03-02T13:15:58;1.87;;;0.97;;
20743;SDS011;56303;52.160;-0.428;2024-03-02T13:18:25;1.23;;;0.70;;
20743;SDS011;56303;52.160;-0.428;2024-03-02T13:20:53;1.33;;;0.80;;
20743;SDS011;56303;52.160;-0.428;2024-03-02T13:23:22;1.13;;;0.70;;
20743;SDS011;56303;52.160;-0.428;2024-03-02T13:25:57;1.30;;;0.67;;
20743;SDS011;56303;52.160;-0.428;2024-03-02T13:28:27;0.97;;;0.83;;
20743;SDS011;56303;52.160;-0.428;2024-03-02T13:30:54;1.07;;;0.97;;
20743;SDS011;56303;52.160;-0.428;2024-03-02T13:33:21;2.13;;;1.10;;
20743;SDS011;56303;52.160;-0.428;2024-03-02T13:35:51;4.23;;;1.03;;
20743;SDS011;56303;52.160;-0.428;2024-03-02T13:38:20;1.43;;;0.77;;
20743;SDS011;56303;52.160;-0.428;2024-03-02T13:40:48;2.17;;;0.90;;
20743;SDS011;56303;52.160;-0.428;2024-03-02T13:43:18;1.00;;;0.87;;
20743;SDS011;56303;52.160;-0.428;2024-03-02T13:45:46;1.43;;;0.87;;
20743;SDS011;56303;52.160;-0.428;2024-03-02T13:48:14;1.00;;;0.90;;
20743;SDS011;56303;52.160;-0.428;2024-03-02T13:50:41;1.03;;;0.60;;
20743;SDS011;56303;52.160;-0.428;2024-03-02T13:53:08;1.17;;;0.73;;
20743;SDS011;56303;52.160;-0.428;2024-03-02T13:55:35;0.83;;;0.50;;
20743;SDS011;56303;52.160;-0.428;2024-03-02T13:58:02;0.70;;;0.70;;
20743;SDS011;56303;52.160;-0.428;2024-03-02T14:00:29;0.57;;;0.50;;
20743;SDS011;56303;52.160;-0.428;2024-03-02T14:02:56;2.37;;;0.73;;
20743;SDS011;56303;52.160;-0.428;2024-03-02T14:05:23;1.77;;;0.67;;
20743;SDS011;56303;52.160;-0.428;2024-03-02T14:07:53;0.50;;;0.50;;
20743;SDS011;56303;52.160;-0.428;2024-03-02T14:10:20;0.60;;;0.60;;
20743;SDS011;56303;52.160;-0.428;2024-03-02T14:12:49;1.23;;;0.70;;
20743;SDS011;56303;52.160;-0.428;2024-03-02T14:15:16;0.83;;;0.70;;
20743;SDS011;56303;52.160;-0.428;2024-03-02T14:17:46;1.00;;;0.90;;
20743;SDS011;56303;52.160;-0.428;2024-03-02T14:20:13;2.13;;;0.80;;
20743;SDS011;56303;52.160;-0.428;2024-03-02T14:22:41;0.80;;;0.80;;
20743;SDS011;56303;52.160;-0.428;2024-03-02T14:25:08;1.13;;;0.93;;
20743;SDS011;56303;52.160;-0.428;2024-03-02T14:27:35;1.77;;;0.57;;
20743;SDS011;56303;52.160;-0.428;2024-03-02T14:30:22;0.77;;;0.63;;
20743;SDS011;56303;52.160;-0.428;2024-03-02T14:32:49;0.87;;;0.87;;
20743;SDS011;56303;52.160;-0.428;2024-03-02T14:35:17;1.10;;;0.63;;
20743;SDS011;56303;52.160;-0.428;2024-03-02T14:37:47;0.63;;;0.63;;
20743;SDS011;56303;52.160;-0.428;2024-03-02T14:40:14;0.57;;;0.57;;
20743;SDS011;56303;52.160;-0.428;2024-03-02T14:42:41;1.30;;;0.90;;
20743;SDS011;56303;52.160;-0.428;2024-03-02T14:45:13;1.03;;;0.90;;
20743;SDS011;56303;52.160;-0.428;2024-03-02T14:47:40;1.73;;;1.00;;
20743;SDS011;56303;52.160;-0.428;2024-03-02T14:50:08;1.23;;;0.90;;
20743;SDS011;56303;52.160;-0.428;2024-03-02T14:52:36;2.20;;;1.07;;
20743;SDS011;56303;52.160;-0.428;2024-03-02T14:55:03;2.10;;;1.07;;
20743;SDS011;56303;52.160;-0.428;2024-03-02T14:57:30;2.00;;;0.90;;
20743;SDS011;56303;52.160;-0.428;2024-03-02T14:59:59;0.93;;;0.73;;
20743;SDS011;56303;52.160;-0.428;2024-03-02T15:02:26;1.47;;;0.87;;
20743;SDS011;56303;52.160;-0.428;2024-03-02T15:04:55;0.50;;;0.50;;